AAL1709 KCLT-KBOS
Flight info
| Callsign | AAL1709 |
|---|---|
| Flight time | N/A |
| Altitude | 35000 |
| Route | BARMY5 RDU NOWAE Q87 GEARS BBOBO Q22 RBV Q419 JFK ROBUC3 |
| Aircraft | A321/M-SDE3FGHIRWY/LB1 |
Departure
| Time | 2026-05-06 17:22 |
|---|---|
| Airport | Charlotte Douglas International Airport (KCLT) |
Arrival
| Time | N/A |
|---|---|
| Airport | Boston Logan International Airport (KBOS) |
| Time | Latitude | Longitude | Altitude | Speed | Heading |
|---|---|---|---|---|---|
| 2026-05-06 17:03 | 35.21916 | -80.94578 | 733 ft | 0 kts | 102° |
| 2026-05-06 17:13 | 35.21917 | -80.94588 | 723 ft | 3 kts | 102° |
| 2026-05-06 17:13 | 35.21921 | -80.94613 | 723 ft | 3 kts | 102° |
| 2026-05-06 17:13 | 35.21926 | -80.94637 | 731 ft | 3 kts | 102° |
| 2026-05-06 17:14 | 35.21930 | -80.94661 | 731 ft | 3 kts | 102° |
| 2026-05-06 17:14 | 35.21931 | -80.94670 | 730 ft | 0 kts | 102° |
| 2026-05-06 17:16 | 35.21927 | -80.94662 | 730 ft | 3 kts | 124° |
| 2026-05-06 17:16 | 35.21897 | -80.94683 | 731 ft | 7 kts | 241° |
| 2026-05-06 17:17 | 35.21883 | -80.94744 | 732 ft | 8 kts | 262° |
| 2026-05-06 17:17 | 35.21878 | -80.94811 | 732 ft | 8 kts | 265° |
| 2026-05-06 17:17 | 35.21874 | -80.94881 | 733 ft | 8 kts | 265° |
| 2026-05-06 17:17 | 35.21869 | -80.94952 | 733 ft | 9 kts | 265° |
| 2026-05-06 17:18 | 35.21874 | -80.95021 | 733 ft | 8 kts | 298° |
| 2026-05-06 17:18 | 35.21924 | -80.95047 | 734 ft | 8 kts | 352° |
| 2026-05-06 17:18 | 35.21984 | -80.95054 | 734 ft | 9 kts | 355° |
| 2026-05-06 17:18 | 35.22051 | -80.95059 | 734 ft | 11 kts | 356° |
| 2026-05-06 17:19 | 35.22137 | -80.95064 | 734 ft | 13 kts | 356° |
| 2026-05-06 17:19 | 35.22227 | -80.95074 | 734 ft | 13 kts | 355° |
| 2026-05-06 17:19 | 35.22321 | -80.95082 | 734 ft | 14 kts | 355° |
| 2026-05-06 17:19 | 35.22419 | -80.95091 | 733 ft | 15 kts | 356° |
| 2026-05-06 17:20 | 35.22523 | -80.95100 | 733 ft | 15 kts | 356° |
| 2026-05-06 17:20 | 35.22630 | -80.95110 | 733 ft | 16 kts | 355° |
| 2026-05-06 17:20 | 35.22724 | -80.95155 | 734 ft | 14 kts | 296° |
| 2026-05-06 17:20 | 35.22723 | -80.95259 | 739 ft | 10 kts | 263° |
| 2026-05-06 17:21 | 35.22683 | -80.95311 | 740 ft | 12 kts | 192° |
| 2026-05-06 17:21 | 35.22455 | -80.95295 | 740 ft | 65 kts | 176° |
| 2026-05-06 17:21 | 35.21795 | -80.95239 | 742 ft | 126 kts | 176° |
| 2026-05-06 17:21 | 35.20746 | -80.95141 | 809 ft | 168 kts | 178° |
| 2026-05-06 17:22 | 35.19635 | -80.95017 | 1654 ft | 155 kts | 179° |
| 2026-05-06 17:22 | 35.18580 | -80.94782 | 2375 ft | 158 kts | 165° |
| 2026-05-06 17:22 | 35.17650 | -80.93972 | 2784 ft | 180 kts | 132° |
| 2026-05-06 17:22 | 35.17216 | -80.92412 | 2919 ft | 214 kts | 91° |
| 2026-05-06 17:23 | 35.17472 | -80.90516 | 3077 ft | 237 kts | 80° |
| 2026-05-06 17:23 | 35.17839 | -80.88463 | 3230 ft | 258 kts | 79° |
| 2026-05-06 17:23 | 35.18247 | -80.86250 | 3342 ft | 282 kts | 79° |
| 2026-05-06 17:23 | 35.18689 | -80.83844 | 3794 ft | 295 kts | 79° |
| 2026-05-06 17:24 | 35.19137 | -80.81380 | 4461 ft | 299 kts | 78° |
| 2026-05-06 17:24 | 35.19583 | -80.78901 | 5074 ft | 304 kts | 78° |
| 2026-05-06 17:24 | 35.20037 | -80.76346 | 5701 ft | 308 kts | 78° |
| 2026-05-06 17:24 | 35.20489 | -80.73762 | 6383 ft | 310 kts | 78° |
| 2026-05-06 17:25 | 35.20937 | -80.71197 | 6942 ft | 315 kts | 77° |
| 2026-05-06 17:25 | 35.21397 | -80.68561 | 7506 ft | 319 kts | 77° |
| 2026-05-06 17:25 | 35.21867 | -80.65868 | 8015 ft | 326 kts | 77° |
| 2026-05-06 17:25 | 35.22343 | -80.63139 | 8539 ft | 331 kts | 77° |
| 2026-05-06 17:26 | 35.22827 | -80.60360 | 9022 ft | 337 kts | 77° |
| 2026-05-06 17:26 | 35.23311 | -80.57572 | 9559 ft | 342 kts | 76° |
| 2026-05-06 17:26 | 35.23808 | -80.54704 | 10076 ft | 348 kts | 77° |
| 2026-05-06 17:26 | 35.24323 | -80.51719 | 10233 ft | 367 kts | 77° |
| 2026-05-06 17:27 | 35.24865 | -80.48577 | 10361 ft | 385 kts | 77° |
| 2026-05-06 17:27 | 35.25421 | -80.45290 | 10475 ft | 403 kts | 78° |
| 2026-05-06 17:27 | 35.25931 | -80.41846 | 10608 ft | 420 kts | 79° |
| 2026-05-06 17:27 | 35.26402 | -80.38293 | 10783 ft | 433 kts | 80° |
| 2026-05-06 17:28 | 35.26856 | -80.34622 | 11163 ft | 439 kts | 81° |
| 2026-05-06 17:28 | 35.27311 | -80.30885 | 11569 ft | 444 kts | 81° |
| 2026-05-06 17:28 | 35.27775 | -80.27131 | 12018 ft | 448 kts | 81° |
| 2026-05-06 17:28 | 35.28248 | -80.23387 | 12465 ft | 452 kts | 81° |
| 2026-05-06 17:29 | 35.28740 | -80.19568 | 12920 ft | 455 kts | 80° |
| 2026-05-06 17:29 | 35.29245 | -80.15697 | 13350 ft | 460 kts | 81° |
| 2026-05-06 17:29 | 35.29760 | -80.11817 | 13858 ft | 463 kts | 79° |
| 2026-05-06 17:29 | 35.30555 | -80.07987 | 14298 ft | 465 kts | 69° |
| 2026-05-06 17:30 | 35.31641 | -80.04308 | 14762 ft | 466 kts | 68° |
| 2026-05-06 17:30 | 35.32751 | -80.00556 | 15220 ft | 467 kts | 68° |
| 2026-05-06 17:30 | 35.33857 | -79.96789 | 15690 ft | 469 kts | 68° |
| 2026-05-06 17:30 | 35.34955 | -79.93014 | 16193 ft | 468 kts | 68° |
| 2026-05-06 17:31 | 35.36036 | -79.89291 | 16636 ft | 469 kts | 68° |
| 2026-05-06 17:31 | 35.37131 | -79.85514 | 17017 ft | 471 kts | 68° |
| 2026-05-06 17:31 | 35.38228 | -79.81722 | 17409 ft | 473 kts | 68° |
| 2026-05-06 17:31 | 35.39328 | -79.77925 | 17808 ft | 474 kts | 68° |
| 2026-05-06 17:32 | 35.40436 | -79.74105 | 18195 ft | 476 kts | 68° |
| 2026-05-06 17:32 | 35.41545 | -79.70285 | 18544 ft | 478 kts | 68° |
| 2026-05-06 17:32 | 35.42664 | -79.66429 | 18876 ft | 480 kts | 68° |
| 2026-05-06 17:32 | 35.43774 | -79.62605 | 19210 ft | 481 kts | 68° |
| 2026-05-06 17:33 | 35.44898 | -79.58727 | 19546 ft | 483 kts | 68° |
| 2026-05-06 17:33 | 35.46022 | -79.54833 | 19896 ft | 485 kts | 68° |
| 2026-05-06 17:33 | 35.47150 | -79.50924 | 20231 ft | 486 kts | 68° |
| 2026-05-06 17:33 | 35.48280 | -79.47005 | 20548 ft | 488 kts | 68° |
| 2026-05-06 17:34 | 35.49413 | -79.43067 | 20867 ft | 490 kts | 68° |
| 2026-05-06 17:34 | 35.50536 | -79.39161 | 21137 ft | 492 kts | 69° |
| 2026-05-06 17:34 | 35.51679 | -79.35181 | 21425 ft | 494 kts | 69° |
| 2026-05-06 17:34 | 35.52822 | -79.31184 | 21730 ft | 496 kts | 69° |
| 2026-05-06 17:35 | 35.53959 | -79.27184 | 22048 ft | 497 kts | 69° |
| 2026-05-06 17:35 | 35.55100 | -79.23159 | 22356 ft | 499 kts | 69° |
| 2026-05-06 17:35 | 35.56244 | -79.19125 | 22660 ft | 500 kts | 69° |
| 2026-05-06 17:36 | 35.58932 | -79.11249 | 23238 ft | 500 kts | 57° |
| 2026-05-06 17:36 | 35.60842 | -79.07745 | 23513 ft | 498 kts | 49° |
| 2026-05-06 17:36 | 35.63145 | -79.04561 | 23752 ft | 496 kts | 40° |
| 2026-05-06 17:36 | 35.65712 | -79.01733 | 23972 ft | 496 kts | 37° |
| 2026-05-06 17:37 | 35.68311 | -78.98936 | 24200 ft | 498 kts | 37° |
| 2026-05-06 17:37 | 35.70923 | -78.96114 | 24444 ft | 499 kts | 37° |
| 2026-05-06 17:37 | 35.73531 | -78.93286 | 24682 ft | 501 kts | 37° |
| 2026-05-06 17:37 | 35.76151 | -78.90439 | 24892 ft | 503 kts | 37° |
| 2026-05-06 17:38 | 35.78777 | -78.87580 | 25088 ft | 505 kts | 37° |
| 2026-05-06 17:38 | 35.81410 | -78.84712 | 25292 ft | 506 kts | 37° |
| 2026-05-06 17:38 | 35.84060 | -78.81823 | 25485 ft | 508 kts | 37° |
| 2026-05-06 17:38 | 35.86712 | -78.78930 | 25699 ft | 509 kts | 37° |
| 2026-05-06 17:39 | 35.89344 | -78.76077 | 25881 ft | 510 kts | 37° |
| 2026-05-06 17:39 | 35.92043 | -78.73220 | 26028 ft | 511 kts | 36° |
| 2026-05-06 17:39 | 35.94766 | -78.70382 | 26208 ft | 512 kts | 36° |
| 2026-05-06 17:39 | 35.97489 | -78.67561 | 26458 ft | 511 kts | 36° |
| 2026-05-06 17:40 | 36.00210 | -78.64739 | 26704 ft | 510 kts | 36° |
| 2026-05-06 17:40 | 36.02931 | -78.61901 | 26936 ft | 510 kts | 36° |
| 2026-05-06 17:40 | 36.04733 | -78.60009 | 27079 ft | 510 kts | 36° |
| 2026-05-06 17:40 | 36.07427 | -78.57165 | 27313 ft | 510 kts | 37° |
| 2026-05-06 17:41 | 36.10125 | -78.54307 | 27547 ft | 510 kts | 37° |
| 2026-05-06 17:41 | 36.12817 | -78.51452 | 27778 ft | 509 kts | 36° |
| 2026-05-06 17:41 | 36.15511 | -78.48598 | 28022 ft | 509 kts | 36° |
| 2026-05-06 17:41 | 36.18203 | -78.45750 | 28234 ft | 509 kts | 36° |
| 2026-05-06 17:42 | 36.20897 | -78.42903 | 28510 ft | 508 kts | 36° |
| 2026-05-06 17:42 | 36.23555 | -78.40091 | 28757 ft | 507 kts | 36° |
| 2026-05-06 17:42 | 36.26234 | -78.37254 | 28989 ft | 507 kts | 36° |
| 2026-05-06 17:42 | 36.28924 | -78.34403 | 29222 ft | 507 kts | 36° |
| 2026-05-06 17:43 | 36.31598 | -78.31561 | 29447 ft | 506 kts | 36° |
| 2026-05-06 17:43 | 36.34275 | -78.28708 | 29673 ft | 506 kts | 36° |
| 2026-05-06 17:43 | 36.36947 | -78.25855 | 29906 ft | 506 kts | 36° |
| 2026-05-06 17:43 | 36.39599 | -78.22973 | 30120 ft | 507 kts | 38° |
| 2026-05-06 17:44 | 36.42201 | -78.20009 | 30315 ft | 508 kts | 39° |
| 2026-05-06 17:44 | 36.44740 | -78.17008 | 30477 ft | 509 kts | 39° |
| 2026-05-06 17:44 | 36.47282 | -78.13949 | 30646 ft | 509 kts | 40° |
| 2026-05-06 17:44 | 36.49825 | -78.10879 | 30820 ft | 509 kts | 39° |
| 2026-05-06 17:45 | 36.52371 | -78.07825 | 30994 ft | 509 kts | 39° |
| 2026-05-06 17:45 | 36.54934 | -78.04778 | 31174 ft | 509 kts | 38° |
| 2026-05-06 17:45 | 36.57506 | -78.01748 | 31404 ft | 509 kts | 38° |
| 2026-05-06 17:45 | 36.60092 | -77.98713 | 31605 ft | 509 kts | 38° |
| 2026-05-06 17:46 | 36.62638 | -77.95717 | 31805 ft | 509 kts | 38° |
| 2026-05-06 17:46 | 36.65208 | -77.92687 | 31932 ft | 510 kts | 38° |
| 2026-05-06 17:46 | 36.67791 | -77.89633 | 32053 ft | 512 kts | 38° |
| 2026-05-06 17:46 | 36.70371 | -77.86573 | 32190 ft | 513 kts | 38° |
| 2026-05-06 17:47 | 36.72963 | -77.83492 | 32358 ft | 513 kts | 38° |
| 2026-05-06 17:47 | 36.75553 | -77.80407 | 32514 ft | 513 kts | 38° |
| 2026-05-06 17:47 | 36.78135 | -77.77333 | 32692 ft | 512 kts | 38° |
| 2026-05-06 17:47 | 36.80717 | -77.74261 | 32874 ft | 512 kts | 37° |
| 2026-05-06 17:48 | 36.83295 | -77.71194 | 33052 ft | 512 kts | 37° |
| 2026-05-06 17:48 | 36.85878 | -77.68126 | 33219 ft | 512 kts | 37° |
| 2026-05-06 17:48 | 36.88464 | -77.65054 | 33347 ft | 513 kts | 37° |
| 2026-05-06 17:48 | 36.91052 | -77.61975 | 33493 ft | 514 kts | 37° |
| 2026-05-06 17:49 | 36.93606 | -77.58929 | 33652 ft | 514 kts | 37° |
| 2026-05-06 17:49 | 36.96185 | -77.55839 | 33894 ft | 511 kts | 37° |
| 2026-05-06 17:49 | 36.98762 | -77.52746 | 34100 ft | 510 kts | 37° |
| 2026-05-06 17:49 | 37.01318 | -77.49677 | 34269 ft | 509 kts | 36° |
| 2026-05-06 17:50 | 37.03877 | -77.46608 | 34440 ft | 508 kts | 36° |
| 2026-05-06 17:50 | 37.06427 | -77.43553 | 34608 ft | 507 kts | 36° |
| 2026-05-06 17:50 | 37.09089 | -77.40788 | 34730 ft | 497 kts | 26° |
| 2026-05-06 17:50 | 37.12011 | -77.38548 | 34872 ft | 485 kts | 17° |
| 2026-05-06 17:51 | 37.18205 | -77.35546 | 34982 ft | 475 kts | 9° |
| 2026-05-06 17:51 | 37.24469 | -77.32848 | 34982 ft | 475 kts | 9° |
| 2026-05-06 17:52 | 37.30706 | -77.30139 | 34965 ft | 478 kts | 9° |
| 2026-05-06 17:52 | 37.37008 | -77.27388 | 34966 ft | 479 kts | 9° |
| 2026-05-06 17:53 | 37.43321 | -77.24632 | 34963 ft | 479 kts | 9° |
| 2026-05-06 17:53 | 37.49633 | -77.21869 | 34995 ft | 480 kts | 9° |
| 2026-05-06 17:54 | 37.55945 | -77.19117 | 34987 ft | 480 kts | 9° |
| 2026-05-06 17:54 | 37.62247 | -77.16368 | 34976 ft | 481 kts | 9° |
| 2026-05-06 17:55 | 37.68579 | -77.13553 | 34965 ft | 485 kts | 13° |
| 2026-05-06 17:55 | 37.74634 | -77.09578 | 34960 ft | 495 kts | 19° |
| 2026-05-06 17:56 | 37.80695 | -77.05379 | 34968 ft | 495 kts | 19° |
| 2026-05-06 17:56 | 37.86745 | -77.01200 | 34973 ft | 496 kts | 19° |
| 2026-05-06 17:57 | 37.92774 | -76.97017 | 34984 ft | 496 kts | 19° |
| 2026-05-06 17:57 | 37.98841 | -76.92797 | 34954 ft | 498 kts | 19° |
| 2026-05-06 17:58 | 38.04925 | -76.88556 | 34944 ft | 499 kts | 19° |
| 2026-05-06 17:58 | 38.10979 | -76.84327 | 34941 ft | 499 kts | 19° |
| 2026-05-06 17:59 | 38.17075 | -76.80052 | 34943 ft | 500 kts | 19° |
| 2026-05-06 17:59 | 38.23172 | -76.75762 | 34929 ft | 502 kts | 21° |
| 2026-05-06 18:00 | 38.26084 | -76.73202 | 34927 ft | 515 kts | 31° |
| 2026-05-06 18:00 | 38.28838 | -76.70239 | 34938 ft | 517 kts | 32° |
| 2026-05-06 18:00 | 38.34294 | -76.64322 | 34944 ft | 518 kts | 32° |
| 2026-05-06 18:01 | 38.39811 | -76.58339 | 34956 ft | 519 kts | 31° |
| 2026-05-06 18:01 | 38.45290 | -76.52415 | 34945 ft | 520 kts | 31° |
| 2026-05-06 18:02 | 38.50842 | -76.46469 | 34940 ft | 519 kts | 31° |
| 2026-05-06 18:02 | 38.56381 | -76.40527 | 34969 ft | 519 kts | 30° |
| 2026-05-06 18:03 | 38.61892 | -76.34583 | 34926 ft | 521 kts | 30° |
| 2026-05-06 18:03 | 38.67441 | -76.28582 | 34923 ft | 522 kts | 30° |
| 2026-05-06 18:04 | 38.72995 | -76.22571 | 34925 ft | 523 kts | 30° |
| 2026-05-06 18:04 | 38.78557 | -76.16545 | 34955 ft | 524 kts | 30° |
| 2026-05-06 18:05 | 38.84129 | -76.10497 | 34931 ft | 524 kts | 30° |
| 2026-05-06 18:05 | 38.89661 | -76.04468 | 34937 ft | 524 kts | 30° |
| 2026-05-06 18:06 | 38.95224 | -75.98387 | 34934 ft | 524 kts | 30° |
| 2026-05-06 18:06 | 39.00724 | -75.92153 | 34891 ft | 527 kts | 32° |
| 2026-05-06 18:07 | 39.06065 | -75.85704 | 34890 ft | 530 kts | 33° |
| 2026-05-06 18:07 | 39.11417 | -75.79168 | 34894 ft | 530 kts | 33° |
| 2026-05-06 18:08 | 39.16817 | -75.72677 | 34930 ft | 529 kts | 32° |
| 2026-05-06 18:08 | 39.22188 | -75.66269 | 34919 ft | 528 kts | 32° |
| 2026-05-06 18:09 | 39.27587 | -75.59807 | 34917 ft | 529 kts | 32° |
| 2026-05-06 18:09 | 39.32980 | -75.53319 | 34912 ft | 529 kts | 32° |
| 2026-05-06 18:10 | 39.38346 | -75.46838 | 34888 ft | 525 kts | 32° |
| 2026-05-06 18:10 | 39.43647 | -75.40417 | 34888 ft | 524 kts | 32° |
| 2026-05-06 18:11 | 39.48978 | -75.33955 | 34904 ft | 525 kts | 32° |
| 2026-05-06 18:11 | 39.54312 | -75.27485 | 34948 ft | 524 kts | 32° |
| 2026-05-06 18:12 | 39.59607 | -75.21046 | 34927 ft | 524 kts | 32° |
| 2026-05-06 18:12 | 39.64930 | -75.14561 | 34918 ft | 524 kts | 32° |
| 2026-05-06 18:13 | 39.70276 | -75.08115 | 34912 ft | 521 kts | 31° |
| 2026-05-06 18:13 | 39.75711 | -75.01991 | 34906 ft | 518 kts | 29° |
| 2026-05-06 18:14 | 39.81214 | -74.95955 | 34902 ft | 517 kts | 29° |
| 2026-05-06 18:14 | 39.86694 | -74.89839 | 34901 ft | 518 kts | 30° |
| 2026-05-06 18:15 | 39.92221 | -74.83996 | 34934 ft | 508 kts | 24° |
| 2026-05-06 18:15 | 39.97978 | -74.78667 | 34867 ft | 505 kts | 23° |
| 2026-05-06 18:16 | 40.03660 | -74.73197 | 34872 ft | 518 kts | 32° |
| 2026-05-06 18:16 | 40.08654 | -74.66266 | 34868 ft | 528 kts | 38° |
| 2026-05-06 18:17 | 40.13590 | -74.59129 | 34896 ft | 530 kts | 38° |
| 2026-05-06 18:17 | 40.18543 | -74.51964 | 34887 ft | 530 kts | 38° |
| 2026-05-06 18:18 | 40.21097 | -74.48605 | 34881 ft | 519 kts | 30° |
| 2026-05-06 18:18 | 40.23877 | -74.45604 | 34891 ft | 516 kts | 28° |
| 2026-05-06 18:18 | 40.29454 | -74.39673 | 34928 ft | 516 kts | 28° |
| 2026-05-06 18:19 | 40.35006 | -74.33743 | 34859 ft | 516 kts | 28° |
| 2026-05-06 18:19 | 40.40573 | -74.27772 | 34866 ft | 516 kts | 28° |
| 2026-05-06 18:20 | 40.46123 | -74.21805 | 34872 ft | 516 kts | 28° |
| 2026-05-06 18:20 | 40.51617 | -74.15672 | 34876 ft | 526 kts | 36° |
| 2026-05-06 18:21 | 40.54003 | -74.11936 | 34873 ft | 540 kts | 47° |
| 2026-05-06 18:21 | 40.55931 | -74.07638 | 34873 ft | 551 kts | 59° |